createdAt,value
2023-03-08T00:00:18.292Z,45.92
2023-03-08T00:02:48.750Z,46.88
2023-03-08T00:05:18.848Z,44.75
2023-03-08T00:07:47.160Z,42.88
2023-03-08T00:10:18.945Z,42.40
2023-03-08T00:12:47.807Z,43.47
2023-03-08T00:15:16.080Z,42.83
2023-03-08T00:17:45.229Z,41.17
2023-03-08T00:20:14.915Z,41.97
2023-03-08T00:22:43.701Z,40.97
2023-03-08T00:25:16.608Z,42.63
2023-03-08T00:27:45.575Z,43.17
2023-03-08T00:30:16.888Z,42.38
2023-03-08T00:32:57.601Z,42.03
2023-03-08T00:35:26.807Z,45.33
2023-03-08T00:37:56.922Z,43.83
2023-03-08T00:40:26.659Z,48.58
2023-03-08T00:42:58.860Z,45.58
2023-03-08T00:45:32.417Z,43.53
2023-03-08T00:48:08.492Z,43.73
2023-03-08T00:50:37.089Z,41.65
2023-03-08T00:53:08.898Z,42.50
2023-03-08T00:55:38.539Z,41.60
2023-03-08T00:58:07.800Z,43.10
2023-03-08T01:00:38.626Z,43.47
2023-03-08T01:03:09.153Z,43.38
2023-03-08T01:05:50.047Z,43.63
2023-03-08T01:08:20.916Z,43.65
2023-03-08T01:10:59.899Z,44.60
2023-03-08T01:13:31.867Z,42.53
2023-03-08T01:16:02.622Z,42.47
2023-03-08T01:18:32.146Z,42.40
2023-03-08T01:21:01.712Z,42.08
2023-03-08T01:23:31.762Z,43.00
2023-03-08T01:26:02.450Z,42.55
2023-03-08T01:28:30.578Z,42.58
2023-03-08T01:31:09.452Z,42.50
2023-03-08T01:33:42.759Z,41.50
2023-03-08T01:36:13.587Z,43.80
2023-03-08T01:38:47.918Z,44.33
2023-03-08T01:41:18.976Z,43.80
2023-03-08T01:43:49.844Z,44.55
2023-03-08T01:46:23.376Z,44.95
2023-03-08T01:49:06.523Z,44.53
2023-03-08T01:51:35.853Z,44.72
2023-03-08T01:54:10.322Z,45.97
2023-03-08T01:56:40.571Z,44.75
2023-03-08T01:59:09.767Z,49.53
2023-03-08T02:01:41.523Z,50.70
2023-03-08T02:04:10.927Z,50.35
2023-03-08T02:06:39.390Z,49.28
2023-03-08T02:09:09.571Z,51.15
2023-03-08T02:11:38.527Z,51.95
2023-03-08T02:14:07.365Z,50.53
2023-03-08T02:16:36.404Z,49.25
2023-03-08T02:19:06.794Z,47.50
2023-03-08T02:21:35.583Z,44.90
2023-03-08T02:24:10.909Z,45.17
2023-03-08T02:26:42.927Z,44.95
2023-03-08T02:29:14.718Z,46.88
2023-03-08T02:31:43.155Z,49.45
2023-03-08T02:34:11.033Z,47.55
2023-03-08T02:36:41.967Z,51.78
2023-03-08T02:39:22.956Z,49.53
2023-03-08T02:41:52.387Z,45.40
2023-03-08T02:44:22.419Z,40.03
2023-03-08T02:46:50.790Z,40.60
2023-03-08T02:49:19.429Z,40.38
2023-03-08T02:51:50.110Z,37.70
2023-03-08T02:54:18.838Z,39.45
2023-03-08T02:56:53.862Z,39.30
2023-03-08T02:59:23.997Z,38.40
2023-03-08T03:01:53.808Z,44.35
2023-03-08T03:04:23.718Z,37.70
2023-03-08T03:06:53.622Z,38.35
2023-03-08T03:09:22.333Z,39.70
2023-03-08T03:11:52.545Z,38.55
2023-03-08T03:14:23.886Z,37.08
2023-03-08T03:16:53.049Z,37.63
2023-03-08T03:19:21.769Z,35.72
2023-03-08T03:21:51.912Z,36.67
2023-03-08T03:24:20.636Z,36.17
2023-03-08T03:26:56.208Z,37.60
2023-03-08T03:29:27.719Z,33.72
2023-03-08T03:32:06.569Z,39.65
2023-03-08T03:34:35.149Z,37.83
2023-03-08T03:37:04.881Z,38.63
2023-03-08T03:39:39.153Z,39.55
2023-03-08T03:42:09.713Z,39.95
2023-03-08T03:44:42.078Z,41.58
2023-03-08T03:47:15.221Z,43.10
2023-03-08T03:49:45.018Z,42.70
2023-03-08T03:52:17.036Z,45.13
2023-03-08T03:54:53.224Z,46.50
2023-03-08T03:57:22.330Z,44.83
2023-03-08T03:59:50.973Z,48.00
2023-03-08T04:02:22.732Z,46.05
2023-03-08T04:04:56.458Z,44.55
2023-03-08T04:07:29.597Z,42.65
2023-03-08T04:10:00.280Z,40.75
2023-03-08T04:12:28.474Z,38.03
2023-03-08T04:15:01.027Z,37.47
2023-03-08T04:17:33.170Z,35.83
2023-03-08T04:20:07.242Z,35.95
2023-03-08T04:22:43.056Z,34.92
2023-03-08T04:25:19.990Z,32.75
2023-03-08T04:27:56.204Z,34.72
2023-03-08T04:30:24.877Z,35.70
2023-03-08T04:32:55.907Z,36.03
2023-03-08T04:38:00.091Z,35.03
2023-03-08T04:40:33.146Z,36.85
2023-03-08T04:43:08.278Z,35.47
2023-03-08T04:48:14.208Z,34.10
2023-03-08T04:50:44.213Z,33.20
2023-03-08T04:53:13.701Z,34.90
2023-03-08T04:55:45.890Z,37.22
2023-03-08T04:58:14.322Z,35.78
2023-03-08T05:00:43.662Z,36.47
2023-03-08T05:03:15.252Z,34.35
2023-03-08T05:05:46.644Z,34.72
2023-03-08T05:08:16.978Z,34.28
2023-03-08T05:10:52.040Z,36.25
2023-03-08T05:13:23.817Z,35.97
2023-03-08T05:15:52.815Z,36.60
2023-03-08T05:18:21.370Z,35.88
2023-03-08T05:20:56.916Z,37.47
2023-03-08T05:23:28.468Z,36.10
2023-03-08T05:25:59.496Z,35.97
2023-03-08T05:28:33.026Z,34.63
2023-03-08T05:31:06.397Z,36.17
2023-03-08T05:33:49.829Z,36.35
2023-03-08T05:36:56.609Z,37.95
2023-03-08T05:39:25.334Z,34.88
2023-03-08T05:42:15.713Z,35.40
2023-03-08T05:45:23.137Z,39.08
2023-03-08T05:48:00.104Z,37.22
2023-03-08T05:51:07.238Z,36.75
2023-03-08T05:53:36.072Z,35.05
2023-03-08T05:56:19.599Z,36.35
2023-03-08T05:58:58.196Z,32.95
2023-03-08T06:01:29.280Z,33.92
2023-03-08T06:04:06.057Z,33.05
2023-03-08T06:06:39.431Z,33.00
2023-03-08T06:09:09.697Z,35.83
2023-03-08T06:11:41.071Z,33.63
2023-03-08T06:14:11.638Z,35.58
2023-03-08T06:16:44.177Z,33.08
2023-03-08T06:19:13.380Z,34.65
2023-03-08T06:21:41.968Z,34.10
2023-03-08T06:24:10.109Z,33.80
2023-03-08T06:26:39.348Z,35.03
2023-03-08T06:29:07.483Z,34.40
2023-03-08T06:31:38.039Z,32.97
2023-03-08T06:34:38.726Z,28.67
2023-03-08T06:37:10.076Z,30.35
2023-03-08T06:40:01.407Z,29.17
2023-03-08T06:42:41.406Z,28.92
2023-03-08T06:45:14.795Z,27.98
2023-03-08T06:47:46.070Z,27.50
2023-03-08T06:50:19.495Z,29.05
2023-03-08T06:52:54.871Z,30.02
2023-03-08T06:55:38.425Z,26.63
2023-03-08T06:58:07.504Z,28.15
2023-03-08T07:00:36.845Z,29.55
2023-03-08T07:03:05.391Z,26.98
2023-03-08T07:05:34.277Z,25.55
2023-03-08T07:08:04.813Z,25.42
2023-03-08T07:10:36.765Z,27.38
2023-03-08T07:13:06.964Z,28.42
2023-03-08T07:15:39.812Z,27.48
2023-03-08T07:18:11.190Z,30.85
2023-03-08T07:20:39.284Z,26.67
2023-03-08T07:23:11.273Z,26.52
2023-03-08T07:25:42.776Z,26.92
2023-03-08T07:28:10.994Z,26.08
2023-03-08T07:30:39.585Z,26.13
2023-03-08T07:33:11.944Z,24.50
2023-03-08T07:35:42.188Z,26.40
2023-03-08T07:38:12.475Z,26.70
2023-03-08T07:40:42.437Z,22.90
2023-03-08T07:43:10.521Z,23.10
2023-03-08T07:45:54.710Z,23.52
2023-03-08T07:48:27.537Z,23.30
2023-03-08T07:50:56.352Z,23.25
2023-03-08T07:53:24.872Z,20.38
2023-03-08T07:55:53.097Z,18.38
2023-03-08T07:58:28.393Z,17.67
2023-03-08T08:00:56.534Z,18.55
2023-03-08T08:03:25.538Z,19.92
2023-03-08T08:06:27.260Z,19.27
2023-03-08T08:09:04.145Z,20.17
2023-03-08T08:11:33.184Z,19.23
2023-03-08T08:14:03.943Z,18.77
2023-03-08T08:16:34.264Z,19.63
2023-03-08T08:19:04.863Z,20.10
2023-03-08T08:21:33.294Z,18.80
2023-03-08T08:24:11.239Z,19.42
2023-03-08T08:26:42.669Z,16.67
2023-03-08T08:29:11.822Z,16.23
2023-03-08T08:31:41.289Z,17.73
2023-03-08T08:34:15.045Z,19.30
2023-03-08T08:36:44.464Z,17.40
2023-03-08T08:39:12.691Z,17.23
2023-03-08T08:41:40.777Z,18.70
2023-03-08T08:44:10.331Z,16.13
2023-03-08T08:46:39.209Z,16.50
2023-03-08T08:49:07.693Z,15.65
2023-03-08T08:51:36.405Z,16.80
2023-03-08T08:54:05.103Z,17.67
2023-03-08T08:56:34.690Z,16.83
2023-03-08T08:59:05.673Z,17.20
2023-03-08T09:01:37.071Z,17.90
2023-03-08T09:04:19.942Z,16.63
2023-03-08T09:06:50.589Z,16.45
2023-03-08T09:09:18.883Z,16.83
2023-03-08T09:11:55.216Z,17.48
2023-03-08T09:14:26.046Z,17.60
2023-03-08T09:17:00.259Z,18.45
2023-03-08T09:19:29.511Z,19.60
2023-03-08T09:21:59.206Z,18.58
2023-03-08T09:24:29.192Z,18.08
2023-03-08T09:27:00.152Z,17.83
2023-03-08T09:29:30.241Z,18.77
2023-03-08T09:31:58.904Z,18.40
2023-03-08T09:34:30.266Z,17.52
2023-03-08T09:36:58.983Z,17.65
2023-03-08T09:39:28.222Z,15.20
2023-03-08T09:41:58.034Z,14.43
2023-03-08T09:44:45.561Z,14.68
2023-03-08T09:47:15.867Z,13.75
2023-03-08T09:49:44.114Z,15.13
2023-03-08T09:52:38.514Z,15.68
2023-03-08T09:55:12.836Z,16.15
2023-03-08T09:57:52.708Z,14.90
2023-03-08T10:00:34.093Z,14.25
2023-03-08T10:03:41.845Z,13.23
2023-03-08T10:06:21.652Z,13.63
2023-03-08T10:08:58.688Z,13.45
2023-03-08T10:11:57.545Z,12.98
2023-03-08T10:14:35.311Z,12.85
2023-03-08T10:17:16.796Z,12.82
2023-03-08T10:19:54.143Z,12.77
2023-03-08T10:22:32.582Z,14.27
2023-03-08T10:25:40.037Z,12.10
2023-03-08T10:28:21.958Z,12.00
2023-03-08T10:30:54.859Z,12.23
2023-03-08T10:33:38.545Z,11.98
2023-03-08T10:36:22.758Z,12.30
2023-03-08T10:39:05.693Z,11.77
2023-03-08T10:41:52.309Z,11.55
2023-03-08T10:45:06.414Z,11.50
2023-03-08T10:47:41.776Z,11.15
2023-03-08T10:50:25.337Z,9.90
2023-03-08T10:52:55.916Z,10.95
2023-03-08T10:55:34.581Z,10.07
2023-03-08T10:58:43.160Z,10.05
2023-03-08T11:01:33.795Z,9.65
2023-03-08T11:04:19.299Z,8.98
2023-03-08T11:06:49.031Z,10.00
2023-03-08T11:09:50.996Z,10.00
2023-03-08T11:12:24.218Z,10.98
2023-03-08T11:14:53.583Z,11.07
2023-03-08T11:17:36.610Z,10.65
2023-03-08T11:20:49.046Z,9.65
2023-03-08T11:23:17.543Z,8.93
2023-03-08T11:25:52.253Z,8.27
2023-03-08T11:28:42.183Z,8.35
2023-03-08T11:31:24.396Z,9.55
2023-03-08T11:34:16.630Z,9.55
2023-03-08T11:37:15.902Z,9.52
2023-03-08T11:40:27.406Z,9.85
2023-03-08T11:43:35.904Z,9.23
2023-03-08T11:46:20.363Z,10.65
2023-03-08T11:48:50.254Z,10.23
2023-03-08T11:51:44.720Z,9.73
2023-03-08T11:54:33.525Z,11.23
2023-03-08T11:57:06.650Z,10.52
2023-03-08T11:59:50.522Z,10.32
2023-03-08T12:02:30.066Z,10.18
2023-03-08T12:05:23.098Z,10.27
2023-03-08T12:07:58.336Z,9.07
2023-03-08T12:13:21.542Z,9.00
2023-03-08T12:15:56.075Z,9.82
2023-03-08T12:18:34.686Z,9.75
2023-03-08T12:21:38.128Z,9.67
2023-03-08T12:24:42.616Z,10.45
2023-03-08T12:27:24.397Z,9.20
2023-03-08T12:30:10.228Z,9.65
2023-03-08T12:32:38.939Z,8.57
2023-03-08T12:35:37.641Z,8.82
2023-03-08T12:38:22.081Z,8.13
2023-03-08T12:40:55.753Z,8.68
2023-03-08T12:43:33.239Z,7.05
2023-03-08T12:46:04.995Z,6.68
2023-03-08T12:48:51.751Z,6.32
2023-03-08T12:51:29.319Z,6.13
2023-03-08T12:54:00.168Z,6.22
2023-03-08T12:56:38.131Z,6.55
2023-03-08T12:59:12.832Z,6.35
2023-03-08T13:01:47.777Z,6.15
2023-03-08T13:04:40.379Z,8.00
2023-03-08T13:07:20.220Z,6.20
2023-03-08T13:09:55.427Z,7.32
2023-03-08T13:12:53.821Z,6.93
2023-03-08T13:15:24.964Z,6.50
2023-03-08T13:21:06.845Z,8.25
2023-03-08T13:23:40.595Z,7.53
2023-03-08T13:26:49.437Z,7.65
2023-03-08T13:29:20.126Z,8.15
2023-03-08T13:31:49.537Z,7.75
2023-03-08T13:34:38.933Z,8.82
2023-03-08T13:37:25.388Z,9.77
2023-03-08T13:42:27.747Z,8.05
2023-03-08T13:45:08.253Z,8.65
2023-03-08T13:47:37.894Z,8.85
2023-03-08T13:50:06.862Z,8.82
2023-03-08T13:52:37.497Z,8.25
2023-03-08T13:55:08.133Z,9.15
2023-03-08T13:57:39.899Z,8.95
2023-03-08T14:00:31.487Z,9.38
2023-03-08T14:03:00.989Z,9.23
2023-03-08T14:05:33.764Z,9.50
2023-03-08T14:08:06.574Z,10.45
2023-03-08T14:10:45.017Z,10.65
2023-03-08T14:13:21.767Z,12.23
2023-03-08T14:15:58.633Z,14.00
2023-03-08T14:18:39.310Z,14.00
2023-03-08T14:21:20.185Z,14.07
2023-03-08T14:24:01.681Z,14.90
2023-03-08T14:26:41.057Z,14.82
2023-03-08T14:29:27.919Z,15.65
2023-03-08T14:32:04.810Z,18.40
2023-03-08T14:34:40.272Z,16.65
2023-03-08T14:37:12.720Z,25.25
2023-03-08T14:39:47.398Z,22.40
2023-03-08T14:42:23.262Z,34.60
2023-03-08T14:45:01.883Z,34.20
2023-03-08T14:47:33.245Z,31.25
2023-03-08T14:50:07.721Z,29.35
2023-03-08T14:52:45.059Z,29.88
2023-03-08T14:55:25.666Z,42.17
2023-03-08T14:58:00.364Z,29.95
2023-03-08T15:00:32.112Z,28.08
2023-03-08T15:03:04.226Z,26.15
2023-03-08T15:05:33.855Z,24.02
2023-03-08T15:08:05.322Z,22.48
2023-03-08T15:10:40.450Z,23.98
2023-03-08T15:13:20.933Z,23.48
2023-03-08T15:15:49.334Z,24.27
2023-03-08T15:18:19.694Z,24.10
2023-03-08T15:20:49.578Z,24.85
2023-03-08T15:23:24.668Z,25.27
2023-03-08T15:25:53.835Z,25.77
2023-03-08T15:28:23.071Z,22.83
2023-03-08T15:30:55.266Z,20.80
2023-03-08T15:33:23.862Z,23.50
2023-03-08T15:35:51.996Z,23.50
2023-03-08T15:38:21.635Z,21.63
2023-03-08T15:40:53.134Z,22.73
2023-03-08T15:43:22.214Z,21.90
2023-03-08T15:45:50.414Z,20.95
2023-03-08T15:48:29.951Z,19.38
2023-03-08T15:50:58.902Z,17.65
2023-03-08T15:53:35.737Z,15.85
2023-03-08T15:56:05.807Z,14.05
2023-03-08T15:58:36.810Z,14.25
2023-03-08T16:01:06.007Z,14.80
2023-03-08T16:03:35.578Z,14.65
2023-03-08T16:06:04.338Z,15.32
2023-03-08T16:08:32.631Z,19.48
2023-03-08T16:11:09.465Z,20.02
2023-03-08T16:13:39.388Z,20.60
2023-03-08T16:16:09.822Z,20.05
2023-03-08T16:18:40.554Z,19.95
2023-03-08T16:21:09.392Z,18.20
2023-03-08T16:23:38.474Z,16.27
2023-03-08T16:26:16.637Z,15.52
2023-03-08T16:28:47.536Z,14.65
2023-03-08T16:31:20.009Z,14.02
2023-03-08T16:33:49.199Z,13.73
2023-03-08T16:36:17.862Z,12.90
2023-03-08T16:38:46.578Z,12.88
2023-03-08T16:41:14.814Z,15.35
2023-03-08T16:43:48.616Z,19.55
2023-03-08T16:46:19.513Z,21.60
2023-03-08T16:48:54.620Z,22.58
2023-03-08T16:51:25.184Z,23.65
2023-03-08T16:53:56.178Z,21.92
2023-03-08T16:56:26.583Z,20.90
2023-03-08T16:58:58.256Z,22.92
2023-03-08T17:01:27.296Z,22.65
2023-03-08T17:03:56.995Z,21.40
2023-03-08T17:06:28.826Z,22.25
2023-03-08T17:08:58.056Z,21.90
2023-03-08T17:11:28.018Z,27.83
2023-03-08T17:14:03.378Z,26.20
2023-03-08T17:16:35.788Z,18.40
2023-03-08T17:19:05.910Z,15.88
2023-03-08T17:21:38.395Z,13.32
2023-03-08T17:24:13.127Z,14.65
2023-03-08T17:26:45.592Z,13.55
2023-03-08T17:29:13.951Z,13.55
2023-03-08T17:31:43.217Z,13.65
2023-03-08T17:34:11.602Z,13.35
2023-03-08T17:36:40.781Z,14.15
2023-03-08T17:39:10.379Z,13.15
2023-03-08T17:41:39.621Z,11.73
2023-03-08T17:44:07.611Z,12.35
2023-03-08T17:46:35.805Z,10.82
2023-03-08T17:49:04.001Z,9.27
2023-03-08T17:51:32.349Z,10.07
2023-03-08T17:54:03.359Z,9.73
2023-03-08T17:56:34.604Z,9.50
2023-03-08T17:59:04.553Z,8.75
2023-03-08T18:01:34.966Z,8.30
2023-03-08T18:04:02.988Z,9.23
2023-03-08T18:06:33.738Z,9.23
2023-03-08T18:09:04.256Z,10.65
2023-03-08T18:11:37.713Z,9.57
2023-03-08T18:14:06.756Z,11.55
2023-03-08T18:16:39.549Z,10.48
2023-03-08T18:19:10.412Z,9.90
2023-03-08T18:21:41.118Z,9.13
2023-03-08T18:24:12.459Z,9.43
2023-03-08T18:26:41.722Z,10.07
2023-03-08T18:29:09.844Z,9.77
2023-03-08T18:31:40.977Z,8.98
2023-03-08T18:34:14.478Z,9.65
2023-03-08T18:36:42.790Z,9.68
2023-03-08T18:39:12.826Z,8.40
2023-03-08T18:41:41.622Z,8.25
2023-03-08T18:44:11.780Z,8.70
2023-03-08T18:46:41.483Z,8.75
2023-03-08T18:49:12.065Z,9.55
2023-03-08T18:51:41.037Z,9.70
2023-03-08T18:54:20.951Z,9.20
2023-03-08T18:56:50.172Z,9.63
2023-03-08T18:59:18.614Z,10.15
2023-03-08T19:01:50.154Z,10.77
2023-03-08T19:04:18.809Z,11.80
2023-03-08T19:06:47.310Z,12.55
2023-03-08T19:09:16.564Z,11.75
2023-03-08T19:12:06.949Z,12.25
2023-03-08T19:14:36.842Z,10.60
2023-03-08T19:17:05.836Z,10.35
2023-03-08T19:19:33.892Z,10.75
2023-03-08T19:22:07.574Z,13.02
2023-03-08T19:24:35.757Z,15.25
2023-03-08T19:27:05.397Z,12.65
2023-03-08T19:29:38.224Z,10.07
2023-03-08T19:32:09.275Z,8.68
2023-03-08T19:34:50.594Z,8.18
2023-03-08T19:37:33.301Z,8.40
2023-03-08T19:40:01.654Z,7.70
2023-03-08T19:42:55.945Z,7.78
2023-03-08T19:46:03.690Z,8.63
2023-03-08T19:48:34.304Z,7.60
2023-03-08T19:51:06.843Z,8.40
2023-03-08T19:53:42.966Z,8.63
2023-03-08T19:57:20.518Z,7.70
2023-03-08T20:00:25.629Z,8.20
2023-03-08T20:02:59.731Z,7.68
2023-03-08T20:05:51.024Z,8.68
2023-03-08T20:08:32.266Z,10.23
2023-03-08T20:11:27.442Z,9.50
2023-03-08T20:14:38.345Z,9.93
2023-03-08T20:17:15.827Z,10.70
2023-03-08T20:20:04.977Z,14.88
2023-03-08T20:22:50.861Z,15.32
2023-03-08T20:26:04.341Z,15.43
2023-03-08T20:28:47.000Z,14.10
2023-03-08T20:31:31.964Z,14.95
2023-03-08T20:34:00.303Z,13.27
2023-03-08T20:36:35.214Z,13.63
2023-03-08T20:39:04.325Z,11.93
2023-03-08T20:42:11.296Z,14.52
2023-03-08T20:45:00.183Z,14.30
2023-03-08T20:47:28.489Z,11.48
2023-03-08T20:49:56.980Z,10.82
2023-03-08T20:52:24.994Z,10.32
2023-03-08T20:54:53.120Z,7.28
2023-03-08T20:57:21.807Z,6.78
2023-03-08T20:59:52.359Z,7.60
2023-03-08T21:02:20.613Z,9.60
2023-03-08T21:04:48.705Z,11.35
2023-03-08T21:07:22.174Z,10.45
2023-03-08T21:09:51.143Z,11.65
2023-03-08T21:12:22.372Z,12.75
2023-03-08T21:14:54.117Z,11.57
2023-03-08T21:17:26.138Z,12.68
2023-03-08T21:19:55.996Z,11.68
2023-03-08T21:22:24.227Z,11.60
2023-03-08T21:24:52.456Z,12.02
2023-03-08T21:27:28.050Z,11.80
2023-03-08T21:29:59.221Z,12.32
2023-03-08T21:32:31.184Z,11.45
2023-03-08T21:35:01.791Z,12.60
2023-03-08T21:37:30.098Z,12.20
2023-03-08T21:39:58.072Z,12.02
2023-03-08T21:42:26.216Z,12.07
2023-03-08T21:44:54.549Z,11.27
2023-03-08T21:47:22.540Z,11.68
2023-03-08T21:49:51.222Z,11.00
2023-03-08T21:52:19.977Z,10.10
2023-03-08T21:54:50.349Z,10.25
2023-03-08T21:57:20.853Z,10.13
2023-03-08T21:59:50.050Z,9.57
2023-03-08T22:02:17.968Z,10.05
2023-03-08T22:04:47.322Z,9.27
2023-03-08T22:07:15.538Z,9.50
2023-03-08T22:09:43.659Z,10.07
2023-03-08T22:12:15.025Z,10.13
2023-03-08T22:14:43.366Z,9.35
2023-03-08T22:17:11.356Z,9.40
2023-03-08T22:19:39.436Z,10.65
2023-03-08T22:22:10.422Z,9.40
2023-03-08T22:24:38.691Z,10.82
2023-03-08T22:27:07.328Z,10.20
2023-03-08T22:29:35.360Z,10.23
2023-03-08T22:32:06.532Z,10.15
2023-03-08T22:34:34.782Z,11.40
2023-03-08T22:37:03.259Z,11.55
2023-03-08T22:39:32.176Z,10.65
2023-03-08T22:42:03.443Z,10.60
2023-03-08T22:44:32.039Z,10.70
2023-03-08T22:47:02.403Z,11.52
2023-03-08T22:49:31.965Z,10.82
2023-03-08T22:52:03.421Z,11.80
2023-03-08T22:54:32.068Z,11.32
2023-03-08T22:57:00.497Z,12.23
2023-03-08T22:59:29.754Z,11.65
2023-03-08T23:01:57.910Z,11.65
2023-03-08T23:04:26.623Z,12.82
2023-03-08T23:06:55.133Z,12.80
2023-03-08T23:09:23.125Z,12.90
2023-03-08T23:11:54.418Z,13.13
2023-03-08T23:14:23.724Z,13.77
2023-03-08T23:16:53.368Z,13.90
2023-03-08T23:19:22.526Z,13.63
2023-03-08T23:22:11.824Z,14.40
2023-03-08T23:24:41.824Z,15.02
2023-03-08T23:27:11.534Z,14.32
2023-03-08T23:29:41.509Z,15.27
2023-03-08T23:32:10.358Z,15.23
2023-03-08T23:34:40.056Z,16.15
2023-03-08T23:37:11.786Z,16.60
2023-03-08T23:39:39.879Z,16.38
2023-03-08T23:42:07.966Z,15.75
2023-03-08T23:44:41.261Z,14.38
2023-03-08T23:47:10.426Z,13.95
2023-03-08T23:49:40.319Z,15.13
2023-03-08T23:52:10.656Z,15.73
2023-03-08T23:54:42.748Z,16.15
2023-03-08T23:57:11.230Z,15.52
2023-03-08T23:59:45.909Z,16.10
